createdAt,value
2019-05-06T00:01:21.317Z,15.54
2019-05-06T00:03:54.185Z,15.48
2019-05-06T00:06:26.127Z,15.75
2019-05-06T00:08:57.836Z,15.72
2019-05-06T00:11:29.571Z,15.72
2019-05-06T00:14:03.905Z,15.53
2019-05-06T00:16:35.942Z,15.58
2019-05-06T00:19:07.651Z,15.60
2019-05-06T00:21:39.305Z,15.67
2019-05-06T00:24:11.305Z,15.65
2019-05-06T00:27:07.853Z,15.74
2019-05-06T00:29:39.558Z,15.76
2019-05-06T00:32:11.274Z,15.75
2019-05-06T00:34:43.689Z,15.61
2019-05-06T00:37:15.755Z,15.51
2019-05-06T00:39:54.964Z,15.51
2019-05-06T00:42:44.775Z,15.45
2019-05-06T00:45:16.462Z,15.37
2019-05-06T00:47:48.185Z,15.56
2019-05-06T00:50:19.862Z,15.39
2019-05-06T00:52:53.972Z,15.38
2019-05-06T00:55:25.763Z,15.34
2019-05-06T00:57:58.458Z,15.39
2019-05-06T01:00:34.190Z,15.44
2019-05-06T01:03:05.846Z,15.38
2019-05-06T01:05:37.605Z,15.44
2019-05-06T01:08:09.260Z,15.51
2019-05-06T01:10:40.999Z,15.51
2019-05-06T01:13:35.858Z,15.22
2019-05-06T01:16:09.024Z,15.32
2019-05-06T01:18:40.829Z,15.29
2019-05-06T01:21:14.511Z,15.16
2019-05-06T01:23:46.442Z,15.11
2019-05-06T01:26:18.327Z,15.36
2019-05-06T01:28:51.088Z,15.46
2019-05-06T01:31:26.032Z,15.34
2019-05-06T01:33:58.033Z,15.31
2019-05-06T01:36:29.686Z,15.41
2019-05-06T01:39:29.442Z,15.52
2019-05-06T01:42:13.883Z,15.56
2019-05-06T01:44:45.943Z,15.31
2019-05-06T01:47:17.648Z,15.43
2019-05-06T01:49:49.340Z,15.54
2019-05-06T01:52:21.236Z,15.48
2019-05-06T01:54:54.230Z,15.45
2019-05-06T01:57:26.274Z,15.46
2019-05-06T01:59:57.985Z,15.49
2019-05-06T02:02:30.049Z,15.58
2019-05-06T02:05:04.571Z,15.49
2019-05-06T02:07:35.555Z,15.50
2019-05-06T02:10:07.640Z,15.45
2019-05-06T02:12:49.902Z,15.53
2019-05-06T02:15:23.394Z,15.41
2019-05-06T02:17:55.312Z,15.46
2019-05-06T02:20:27.110Z,15.58
2019-05-06T02:23:09.672Z,15.35
2019-05-06T02:25:45.366Z,15.46
2019-05-06T02:28:17.130Z,15.58
2019-05-06T02:31:06.249Z,15.25
2019-05-06T02:33:56.769Z,15.25
2019-05-06T02:36:36.678Z,14.95
2019-05-06T02:39:08.378Z,15.11
2019-05-06T02:41:42.799Z,15.26
2019-05-06T02:44:13.880Z,15.36
2019-05-06T02:46:48.624Z,15.48
2019-05-06T02:49:39.621Z,15.31
2019-05-06T02:52:14.055Z,15.29
2019-05-06T02:54:47.293Z,15.36
2019-05-06T02:57:23.513Z,15.41
2019-05-06T02:59:55.157Z,15.14
2019-05-06T03:02:41.878Z,15.03
2019-05-06T03:05:04.231Z,15.10
2019-05-06T03:07:37.656Z,15.05
2019-05-06T03:10:09.537Z,14.99
2019-05-06T03:12:43.068Z,14.83
2019-05-06T03:15:16.803Z,14.90
2019-05-06T03:17:49.037Z,14.96
2019-05-06T03:20:43.740Z,15.10
2019-05-06T03:23:15.058Z,15.18
2019-05-06T03:25:46.743Z,15.26
2019-05-06T03:28:18.406Z,15.22
2019-05-06T03:30:55.912Z,15.19
2019-05-06T03:33:47.828Z,15.13
2019-05-06T03:36:13.760Z,14.94
2019-05-06T03:38:33.535Z,14.92
2019-05-06T03:41:05.503Z,14.98
2019-05-06T03:43:39.832Z,15.03
2019-05-06T03:46:28.869Z,14.89
2019-05-06T03:49:03.836Z,14.93
2019-05-06T03:51:35.645Z,15.05
2019-05-06T03:54:07.352Z,15.07
2019-05-06T03:56:43.142Z,15.01
2019-05-06T03:59:13.785Z,14.86
2019-05-06T04:01:45.798Z,15.00
2019-05-06T04:04:17.843Z,15.11
2019-05-06T04:06:49.564Z,15.29
2019-05-06T04:09:23.978Z,15.20
2019-05-06T04:11:55.422Z,15.13
2019-05-06T04:14:28.271Z,14.96
2019-05-06T04:17:24.644Z,15.07
2019-05-06T04:20:05.757Z,15.15
2019-05-06T04:23:13.359Z,15.05
2019-05-06T04:25:58.391Z,14.82
2019-05-06T04:28:34.213Z,15.06
2019-05-06T04:31:07.872Z,15.07
2019-05-06T04:33:39.278Z,15.14
2019-05-06T04:36:13.136Z,15.20
2019-05-06T04:38:44.342Z,15.23
2019-05-06T04:41:16.008Z,15.34
2019-05-06T04:43:47.663Z,15.24
2019-05-06T04:46:19.385Z,15.25
2019-05-06T04:48:53.883Z,15.24
2019-05-06T04:51:25.074Z,15.21
2019-05-06T04:53:57.174Z,15.18
2019-05-06T04:56:28.910Z,15.19
2019-05-06T04:59:06.447Z,15.11
2019-05-06T05:01:37.714Z,15.20
2019-05-06T05:04:26.894Z,15.28
2019-05-06T05:06:43.208Z,15.10
2019-05-06T05:09:17.563Z,15.11
2019-05-06T05:11:56.915Z,15.10
2019-05-06T05:14:42.176Z,15.09
2019-05-06T05:17:34.323Z,15.04
2019-05-06T05:20:09.847Z,15.14
2019-05-06T05:22:44.030Z,15.10
2019-05-06T05:25:15.750Z,14.98
2019-05-06T05:27:47.457Z,14.98
2019-05-06T05:30:19.198Z,14.92
2019-05-06T05:32:52.072Z,14.96
2019-05-06T05:35:24.169Z,14.87
2019-05-06T05:37:57.185Z,14.96
2019-05-06T05:40:28.898Z,14.93
2019-05-06T05:43:08.231Z,14.77
2019-05-06T05:45:42.311Z,14.68
2019-05-06T05:48:23.581Z,14.66
2019-05-06T05:50:55.255Z,14.68
2019-05-06T05:53:27.044Z,14.66
2019-05-06T05:56:02.414Z,14.63
2019-05-06T05:58:33.709Z,14.74
2019-05-06T06:01:05.430Z,14.76
2019-05-06T06:03:37.147Z,14.80
2019-05-06T06:06:09.025Z,14.89
2019-05-06T06:08:43.128Z,14.90
2019-05-06T06:11:34.403Z,15.04
2019-05-06T06:17:12.965Z,15.14
2019-05-06T06:19:54.983Z,15.17
2019-05-06T06:22:28.043Z,15.32
2019-05-06T06:24:59.738Z,15.03
2019-05-06T06:28:11.957Z,14.85
2019-05-06T06:30:52.043Z,14.81
2019-05-06T06:33:23.868Z,15.04
2019-05-06T06:36:06.421Z,15.05
2019-05-06T06:38:54.799Z,15.22
2019-05-06T06:41:26.555Z,15.14
2019-05-06T06:44:02.670Z,15.16
2019-05-06T06:46:34.352Z,15.21
2019-05-06T06:49:07.001Z,15.05
2019-05-06T06:51:39.078Z,14.81
2019-05-06T06:54:12.321Z,14.89
2019-05-06T06:57:05.308Z,14.93
2019-05-06T06:59:43.489Z,14.99
2019-05-06T07:02:37.105Z,15.16
2019-05-06T07:05:27.535Z,15.24
2019-05-06T07:07:53.093Z,15.37
2019-05-06T07:10:43.546Z,15.39
2019-05-06T07:13:16.557Z,15.24
2019-05-06T07:15:52.025Z,15.28
2019-05-06T07:18:24.998Z,15.17
2019-05-06T07:21:18.863Z,15.37
2019-05-06T07:23:53.020Z,15.56
2019-05-06T07:26:28.126Z,15.65
2019-05-06T07:29:04.011Z,15.76
2019-05-06T07:31:33.715Z,15.58
2019-05-06T07:34:05.400Z,15.62
2019-05-06T07:36:37.105Z,15.69
2019-05-06T07:39:09.001Z,15.81
2019-05-06T07:41:53.630Z,15.72
2019-05-06T07:44:45.601Z,15.94
2019-05-06T07:47:25.186Z,16.16
2019-05-06T07:49:56.905Z,16.28
2019-05-06T07:52:28.625Z,16.14
2019-05-06T07:55:02.506Z,15.95
2019-05-06T07:57:34.288Z,16.38
2019-05-06T08:00:06.656Z,16.46
2019-05-06T08:02:38.320Z,16.57
2019-05-06T08:05:10.084Z,16.50
2019-05-06T08:07:42.397Z,16.48
2019-05-06T08:10:14.330Z,16.69
2019-05-06T08:12:48.938Z,16.38
2019-05-06T08:15:22.557Z,16.34
2019-05-06T08:17:54.066Z,16.28
2019-05-06T08:20:36.979Z,16.33
2019-05-06T08:23:32.544Z,16.39
2019-05-06T08:26:12.614Z,16.08
2019-05-06T08:28:41.375Z,16.30
2019-05-06T08:31:12.806Z,16.33
2019-05-06T08:33:44.638Z,16.46
2019-05-06T08:36:22.673Z,16.52
2019-05-06T08:38:59.580Z,16.55
2019-05-06T08:41:34.972Z,16.52
2019-05-06T08:44:06.771Z,16.86
2019-05-06T08:46:38.521Z,16.66
2019-05-06T08:49:12.306Z,17.09
2019-05-06T08:52:06.301Z,17.18
2019-05-06T08:54:43.360Z,17.29
2019-05-06T08:57:15.358Z,17.39
2019-05-06T08:59:48.735Z,17.08
2019-05-06T09:02:24.234Z,17.23
2019-05-06T09:04:55.916Z,16.98
2019-05-06T09:07:27.604Z,17.34
2019-05-06T09:09:59.399Z,17.00
2019-05-06T09:12:32.955Z,17.31
2019-05-06T09:15:05.519Z,17.17
2019-05-06T09:17:37.406Z,17.72
2019-05-06T09:20:09.168Z,18.25
2019-05-06T09:22:43.620Z,18.39
2019-05-06T09:25:16.537Z,18.05
2019-05-06T09:28:04.830Z,18.56
2019-05-06T09:30:44.539Z,18.22
2019-05-06T09:33:22.782Z,18.47
2019-05-06T09:35:54.944Z,18.51
2019-05-06T09:38:26.708Z,18.28
2019-05-06T09:40:58.564Z,17.95
2019-05-06T09:43:32.700Z,17.23
2019-05-06T09:46:03.898Z,16.84
2019-05-06T09:49:13.053Z,17.21
2019-05-06T09:51:44.702Z,17.16
2019-05-06T09:54:42.798Z,17.72
2019-05-06T09:57:18.603Z,18.23
2019-05-06T09:59:52.515Z,18.70
2019-05-06T10:02:23.926Z,18.97
2019-05-06T10:04:55.759Z,19.46
2019-05-06T10:07:27.506Z,19.22
2019-05-06T10:09:59.153Z,19.36
2019-05-06T10:12:32.862Z,19.71
2019-05-06T10:15:05.523Z,19.80
2019-05-06T10:17:38.705Z,19.01
2019-05-06T10:20:12.434Z,19.15
2019-05-06T10:22:47.276Z,19.23
2019-05-06T10:25:22.656Z,19.14
2019-05-06T10:27:57.310Z,19.35
2019-05-06T10:30:29.232Z,18.97
2019-05-06T10:33:02.231Z,19.41
2019-05-06T10:35:33.939Z,19.44
2019-05-06T10:38:15.357Z,20.26
2019-05-06T10:40:59.664Z,20.12
2019-05-06T10:43:32.665Z,19.63
2019-05-06T10:46:05.199Z,19.76
2019-05-06T10:48:36.889Z,19.01
2019-05-06T10:51:22.895Z,19.06
2019-05-06T10:53:54.610Z,18.98
2019-05-06T10:56:53.972Z,18.83
2019-05-06T10:59:22.478Z,19.79
2019-05-06T11:01:58.607Z,19.22
2019-05-06T11:04:33.097Z,19.32
2019-05-06T11:07:06.274Z,19.42
2019-05-06T11:09:37.921Z,19.18
2019-05-06T11:12:09.623Z,19.82
2019-05-06T11:14:41.427Z,21.38
2019-05-06T11:17:14.696Z,20.18
2019-05-06T11:19:46.402Z,21.31
2019-05-06T11:22:21.192Z,22.14
2019-05-06T11:24:51.506Z,22.84
2019-05-06T11:27:32.138Z,22.85
2019-05-06T11:30:02.288Z,23.37
2019-05-06T11:32:42.092Z,23.55
2019-05-06T11:35:19.666Z,23.07
2019-05-06T11:38:12.021Z,22.44
2019-05-06T11:40:44.992Z,20.84
2019-05-06T11:43:18.058Z,20.56
2019-05-06T11:45:51.999Z,21.48
2019-05-06T11:48:23.450Z,20.99
2019-05-06T11:50:58.748Z,20.82
2019-05-06T11:53:32.563Z,20.27
2019-05-06T11:56:05.931Z,21.37
2019-05-06T11:58:42.738Z,21.15
2019-05-06T12:01:38.112Z,20.77
2019-05-06T12:04:09.809Z,20.90
2019-05-06T12:06:42.308Z,20.61
2019-05-06T12:09:17.100Z,20.45
2019-05-06T12:11:48.044Z,20.03
2019-05-06T12:14:22.684Z,20.63
2019-05-06T12:16:55.240Z,21.37
2019-05-06T12:19:27.056Z,21.58
2019-05-06T12:21:58.774Z,21.35
2019-05-06T12:24:30.512Z,20.60
2019-05-06T12:27:03.262Z,20.34
2019-05-06T12:29:38.026Z,20.88
2019-05-06T12:32:30.278Z,21.04
2019-05-06T12:35:04.162Z,20.73
2019-05-06T12:37:36.928Z,21.32
2019-05-06T12:40:08.834Z,21.59
2019-05-06T12:42:44.332Z,21.70
2019-05-06T12:45:25.106Z,22.53
2019-05-06T12:48:03.266Z,21.40
2019-05-06T12:50:35.330Z,20.24
2019-05-06T12:53:07.079Z,20.44
2019-05-06T12:55:38.799Z,20.72
2019-05-06T12:58:13.380Z,21.18
2019-05-06T13:00:44.932Z,21.19
2019-05-06T13:03:16.842Z,21.63
2019-05-06T13:05:52.120Z,21.11
2019-05-06T13:08:32.418Z,20.92
2019-05-06T13:10:59.680Z,20.86
2019-05-06T13:13:33.207Z,21.16
2019-05-06T13:16:05.399Z,21.41
2019-05-06T13:18:37.133Z,20.97
2019-05-06T13:21:08.897Z,20.36
2019-05-06T13:23:44.966Z,20.49
2019-05-06T13:26:16.641Z,21.49
2019-05-06T13:28:53.175Z,21.48
2019-05-06T13:31:25.892Z,20.84
2019-05-06T13:34:15.453Z,21.54
2019-05-06T13:36:47.513Z,21.81
2019-05-06T13:39:19.170Z,21.32
2019-05-06T13:41:52.838Z,20.91
2019-05-06T13:44:26.058Z,21.12
2019-05-06T13:46:57.855Z,21.88
2019-05-06T13:49:52.201Z,22.03
2019-05-06T13:52:27.779Z,21.46
2019-05-06T13:54:59.512Z,21.97
2019-05-06T13:57:32.088Z,22.20
2019-05-06T14:00:06.629Z,22.65
2019-05-06T14:02:47.659Z,22.00
2019-05-06T14:05:19.355Z,20.94
2019-05-06T14:07:52.724Z,21.92
2019-05-06T14:10:24.345Z,22.12
2019-05-06T14:12:56.043Z,22.36
2019-05-06T14:15:27.778Z,21.80
2019-05-06T14:17:59.507Z,22.64
2019-05-06T14:20:33.496Z,22.24
2019-05-06T14:23:05.232Z,22.61
2019-05-06T14:25:55.774Z,22.94
2019-05-06T14:28:33.241Z,23.10
2019-05-06T14:31:13.018Z,22.42
2019-05-06T14:33:46.305Z,22.35
2019-05-06T14:36:17.989Z,22.22
2019-05-06T14:38:53.340Z,22.83
2019-05-06T14:41:27.479Z,22.11
2019-05-06T14:44:02.678Z,22.22
2019-05-06T14:46:51.744Z,22.16
2019-05-06T14:49:25.042Z,22.32
2019-05-06T14:51:56.723Z,22.03
2019-05-06T14:54:28.429Z,22.64
2019-05-06T14:57:18.956Z,22.78
2019-05-06T14:59:55.432Z,22.74
2019-05-06T15:02:28.207Z,22.97
2019-05-06T15:05:02.767Z,22.68
2019-05-06T15:07:33.572Z,22.81
2019-05-06T15:10:19.046Z,22.28
2019-05-06T15:12:38.676Z,21.75
2019-05-06T15:15:12.125Z,21.85
2019-05-06T15:17:43.797Z,21.76
2019-05-06T15:20:15.470Z,21.59
2019-05-06T15:22:47.159Z,21.40
2019-05-06T15:25:18.811Z,21.54
2019-05-06T15:27:50.534Z,21.52
2019-05-06T15:30:29.519Z,21.43
2019-05-06T15:33:02.528Z,21.60
2019-05-06T15:35:52.504Z,21.36
2019-05-06T15:38:26.870Z,21.17
2019-05-06T15:40:58.590Z,20.84
2019-05-06T15:43:30.261Z,20.58
2019-05-06T15:46:03.292Z,20.54
2019-05-06T15:48:35.463Z,20.35
2019-05-06T15:51:07.191Z,20.72
2019-05-06T15:53:38.962Z,20.95
2019-05-06T15:56:12.342Z,20.63
2019-05-06T15:58:44.010Z,20.80
2019-05-06T16:01:15.767Z,20.47
2019-05-06T16:03:47.599Z,20.63
2019-05-06T16:06:19.282Z,20.40
2019-05-06T16:08:52.752Z,20.38
2019-05-06T16:11:24.968Z,20.37
2019-05-06T16:13:56.685Z,20.56
2019-05-06T16:16:28.721Z,20.95
2019-05-06T16:19:03.822Z,21.04
2019-05-06T16:21:33.824Z,20.20
2019-05-06T16:24:19.221Z,20.43
2019-05-06T16:26:52.673Z,20.27
2019-05-06T16:29:35.709Z,20.36
2019-05-06T16:32:10.698Z,20.26
2019-05-06T16:34:43.092Z,20.46
2019-05-06T16:37:14.860Z,20.27
2019-05-06T16:39:46.561Z,20.21
2019-05-06T16:42:18.278Z,19.94
2019-05-06T16:44:52.744Z,20.24
2019-05-06T16:47:39.756Z,19.66
2019-05-06T16:50:13.199Z,20.03
2019-05-06T16:52:45.884Z,19.60
2019-05-06T16:55:24.217Z,19.73
2019-05-06T16:58:04.590Z,19.75
2019-05-06T17:00:38.515Z,19.55
2019-05-06T17:03:23.063Z,19.85
2019-05-06T17:06:18.837Z,19.48
2019-05-06T17:08:52.959Z,19.65
2019-05-06T17:11:33.373Z,19.74
2019-05-06T17:14:03.083Z,19.72
2019-05-06T17:16:36.800Z,19.95
2019-05-06T17:19:12.499Z,20.23
2019-05-06T17:21:42.831Z,19.92
2019-05-06T17:24:14.559Z,19.42
2019-05-06T17:26:46.976Z,19.23
2019-05-06T17:29:26.748Z,19.12
2019-05-06T17:32:23.890Z,19.25
2019-05-06T17:34:57.683Z,19.11
2019-05-06T17:38:03.944Z,18.73
2019-05-06T17:40:35.858Z,18.68
2019-05-06T17:43:09.564Z,18.82
2019-05-06T17:46:01.704Z,18.19
2019-05-06T17:49:03.139Z,18.61
2019-05-06T17:51:42.551Z,18.65
2019-05-06T17:54:15.322Z,18.39
2019-05-06T17:56:47.071Z,18.56
2019-05-06T17:59:18.756Z,18.71
2019-05-06T18:01:53.149Z,18.74
2019-05-06T18:04:24.969Z,18.93
2019-05-06T18:06:56.620Z,19.06
2019-05-06T18:09:28.446Z,18.64
2019-05-06T18:12:02.913Z,18.60
2019-05-06T18:14:34.113Z,18.19
2019-05-06T18:17:05.796Z,18.24
2019-05-06T18:19:39.755Z,17.84
2019-05-06T18:22:13.140Z,18.00
2019-05-06T18:24:45.056Z,18.23
2019-05-06T18:27:17.545Z,18.03
2019-05-06T18:29:49.247Z,18.15
2019-05-06T18:32:23.174Z,17.68
2019-05-06T18:34:54.362Z,17.68
2019-05-06T18:37:26.351Z,17.92
2019-05-06T18:39:58.080Z,17.90
2019-05-06T18:42:29.900Z,17.53
2019-05-06T18:45:02.741Z,17.41
2019-05-06T18:47:34.578Z,17.49
2019-05-06T18:50:06.556Z,17.61
2019-05-06T18:52:38.392Z,17.46
2019-05-06T18:55:12.531Z,17.58
2019-05-06T18:57:44.253Z,17.42
2019-05-06T19:00:15.980Z,17.55
2019-05-06T19:02:47.741Z,17.15
2019-05-06T19:05:26.957Z,17.23
2019-05-06T19:07:57.459Z,17.15
2019-05-06T19:10:34.776Z,17.15
2019-05-06T19:13:08.679Z,17.20
2019-05-06T19:15:39.933Z,17.21
2019-05-06T19:18:12.893Z,17.15
2019-05-06T19:20:44.961Z,17.15
2019-05-06T19:23:16.649Z,17.09
2019-05-06T19:25:48.488Z,17.05
2019-05-06T19:28:22.016Z,16.90
2019-05-06T19:30:55.721Z,16.70
2019-05-06T19:33:27.463Z,16.69
2019-05-06T19:35:59.313Z,16.68
2019-05-06T19:38:33.525Z,16.77
2019-05-06T19:41:05.901Z,16.58
2019-05-06T19:43:37.879Z,16.54
2019-05-06T19:46:11.972Z,16.59
2019-05-06T19:48:43.482Z,16.53
2019-05-06T19:51:15.187Z,16.24
2019-05-06T19:53:47.121Z,16.15
2019-05-06T19:56:18.838Z,15.98
2019-05-06T19:58:52.544Z,16.01
2019-05-06T20:01:24.012Z,16.20
2019-05-06T20:03:55.732Z,16.18
2019-05-06T20:06:55.548Z,16.32
2019-05-06T20:09:44.470Z,16.32
2019-05-06T20:12:23.648Z,16.40
2019-05-06T20:14:58.351Z,16.41
2019-05-06T20:17:30.344Z,16.30
2019-05-06T20:20:03.001Z,16.38
2019-05-06T20:22:34.744Z,16.27
2019-05-06T20:25:06.632Z,16.33
2019-05-06T20:27:38.334Z,16.33
2019-05-06T20:30:11.585Z,16.32
2019-05-06T20:32:44.206Z,16.42
2019-05-06T20:35:15.923Z,16.39
2019-05-06T20:37:47.808Z,16.46
2019-05-06T20:40:19.644Z,16.47
2019-05-06T20:42:53.648Z,16.60
2019-05-06T20:45:25.358Z,16.63
2019-05-06T20:47:57.047Z,16.65
2019-05-06T20:50:29.199Z,16.43
2019-05-06T20:53:00.956Z,16.37
2019-05-06T20:55:35.761Z,16.45
2019-05-06T20:58:07.758Z,16.55
2019-05-06T21:00:40.017Z,16.39
2019-05-06T21:03:12.226Z,16.32
2019-05-06T21:05:44.144Z,16.36
2019-05-06T21:08:15.918Z,16.19
2019-05-06T21:10:49.829Z,16.18
2019-05-06T21:13:29.456Z,16.18
2019-05-06T21:15:56.276Z,16.13
2019-05-06T21:18:27.947Z,16.19
2019-05-06T21:21:02.086Z,16.17
2019-05-06T21:23:35.778Z,16.15
2019-05-06T21:26:07.508Z,16.25
2019-05-06T21:28:39.178Z,16.28
2019-05-06T21:31:12.485Z,16.32
2019-05-06T21:33:44.685Z,16.22
2019-05-06T21:36:16.447Z,16.27
2019-05-06T21:38:48.459Z,16.11
2019-05-06T21:41:21.998Z,16.06
2019-05-06T21:43:55.485Z,16.11
2019-05-06T21:46:27.157Z,16.14
2019-05-06T21:48:58.916Z,16.28
2019-05-06T21:51:32.716Z,16.34
2019-05-06T21:54:04.217Z,16.29
2019-05-06T21:56:35.891Z,16.30
2019-05-06T21:59:08.710Z,16.36
2019-05-06T22:01:42.987Z,16.45
2019-05-06T22:04:22.967Z,16.30
2019-05-06T22:06:54.078Z,16.22
2019-05-06T22:09:25.739Z,16.07
2019-05-06T22:11:57.388Z,16.07
2019-05-06T22:14:29.061Z,15.92
2019-05-06T22:17:03.849Z,15.90
2019-05-06T22:19:34.108Z,16.00
2019-05-06T22:22:07.780Z,16.09
2019-05-06T22:24:55.026Z,16.03
2019-05-06T22:27:22.800Z,15.96
2019-05-06T22:29:54.504Z,15.96
2019-05-06T22:32:26.164Z,15.89
2019-05-06T22:34:57.851Z,15.88
2019-05-06T22:37:33.143Z,15.81
2019-05-06T22:40:08.386Z,16.02
2019-05-06T22:42:40.065Z,16.13
2019-05-06T22:45:12.573Z,16.15
2019-05-06T22:47:47.395Z,15.81
2019-05-06T22:50:19.042Z,15.88
2019-05-06T22:52:58.063Z,15.99
2019-05-06T22:55:32.467Z,16.20
2019-05-06T22:58:04.160Z,16.16
2019-05-06T23:00:37.514Z,16.02
2019-05-06T23:03:13.876Z,16.09
2019-05-06T23:05:52.685Z,16.12
2019-05-06T23:08:26.744Z,16.17
2019-05-06T23:10:57.727Z,16.18
2019-05-06T23:13:29.852Z,16.07
2019-05-06T23:16:02.808Z,16.10
2019-05-06T23:18:37.043Z,16.10
2019-05-06T23:21:08.682Z,16.10
2019-05-06T23:23:40.417Z,16.21
2019-05-06T23:26:22.850Z,16.15
2019-05-06T23:28:54.904Z,15.88
2019-05-06T23:31:26.595Z,16.14
2019-05-06T23:33:58.258Z,15.79
2019-05-06T23:36:52.960Z,16.10
2019-05-06T23:40:03.449Z,16.03
2019-05-06T23:43:12.648Z,16.06
2019-05-06T23:46:19.886Z,15.99
2019-05-06T23:49:27.065Z,16.06
2019-05-06T23:52:34.300Z,16.08
2019-05-06T23:55:42.058Z,15.96
2019-05-06T23:58:14.715Z,16.01
